South Barre, MA

3:09 PM EST on December 28, 2014 (GMT -0500)
KMABARRE2 | Change Station
CLOSE
Current Station
Personal Weather Station
Location: Barre, MA
Elevation: 620 ft
Nearby Weather Stations

Elev 620 ft 42.38 °N, 72.11 °W | Updated 39 seconds ago

Mostly Cloudy
Mostly Cloudy
43.5 °F
Feels Like 40 °F
N
6.3
Wind Variable Wind from West

Today
High -- | Low -- °F
--% Chance of Precip.
Yesterday
High -- | Low -- °F
Precip. -- in
7:17 AM 4:23 PM
Waxing Crescent, 51% visible
Pressure 29.82 in
Visibility 10.0 miles
Clouds Few 2200 ft
Windchill 40 °F
Dew Point 32 °F
Humidity 65%
Rainfall 0.09 in
Snow Depth Not available.
UV 1 out of 12
Pollen .10 out of 12
Air Quality Not available.
Flu Activity Not available.
METAR KORH 281954Z 27018G26KT 10SM FEW022 07/02 A2980 RMK AO2 PK WND 28029/1944 SLP097 T00670017

More Conditions Fewer Conditions

Pressure 29.82 in
Visibility 10.0 miles
Clouds Few 2200 ft
Windchill 40 °F
Dew Point 32 °F
Humidity 65%
Rainfall 0.09 in
Snow Depth Not available.
UV 1 out of 12
Pollen .10 out of 12
Air Quality Not available.
Flu Activity Not available.
METAR KORH 281954Z 27018G26KT 10SM FEW022 07/02 A2980 RMK AO2 PK WND 28029/1944 SLP097 T00670017

More Conditions Fewer Conditions

10-Day Weather Forecast

Almanac

Astronomy

Dec. 28, 2014 Rise Set
Actual Time
Civil Twilight
Nautical Twilight
Astronomical Twilight
Moon
Length of Visible Light
Length of Day
Tomorrow will be .
, % of the Moon is Illuminated

Today's Extremes

State Highs State Lows

Community

WunderPhotos

Upload Photos

1,781,407 photos uploaded!

WunderBlogs® & News

Nearby

Air Quality

  Air Quality AQ Index Pollutant
Not available.

Snow Depth

Station Depth Elevation

Earthquake Activity

City Distance Mag. Time & Date
Minimum magnitude displayed is 2.5.

Coastal Water Temperatures

Place Temperature

Nearby Weather Stations